TimeEDT,TemperatureF,Dew PointF,Humidity,Sea Level PressureIn,VisibilityMPH,Wind Direction,Wind SpeedMPH,Gust SpeedMPH,PrecipitationIn,Events,Conditions,WindDirDegrees,DateUTC
12:15 AM,39.2,29.1,67,30.05,10.0,Calm,Calm,-,N/A,,Overcast,0,2013-03-30 04:15:00
12:55 AM,37.8,28.2,68,30.05,10.0,Calm,Calm,-,N/A,,Mostly Cloudy,0,2013-03-30 04:55:00
1:15 AM,37.8,27.9,67,30.05,10.0,Calm,Calm,-,N/A,,Mostly Cloudy,0,2013-03-30 05:15:00
1:55 AM,37.0,27.5,68,30.06,10.0,Calm,Calm,-,N/A,,Overcast,0,2013-03-30 05:55:00
2:35 AM,35.1,27.3,73,30.06,10.0,SW,3.5,-,N/A,,Scattered Clouds,230,2013-03-30 06:35:00
2:55 AM,36.3,28.8,74,30.07,10.0,Calm,Calm,-,N/A,,Clear,0,2013-03-30 06:55:00
3:15 AM,34.2,26.8,74,30.07,10.0,Calm,Calm,-,N/A,,Clear,0,2013-03-30 07:15:00
3:35 AM,33.3,27.0,78,30.07,10.0,Calm,Calm,-,N/A,,Clear,0,2013-03-30 07:35:00
3:55 AM,34.0,28.4,80,30.07,10.0,Calm,Calm,-,N/A,,Clear,0,2013-03-30 07:55:00
4:15 AM,30.2,24.8,80,30.07,10.0,Calm,Calm,-,N/A,,Clear,0,2013-03-30 08:15:00
4:35 AM,33.8,28.0,79,30.08,10.0,Calm,Calm,-,N/A,,Clear,0,2013-03-30 08:35:00
4:55 AM,32.9,27.9,82,30.08,10.0,Calm,Calm,-,N/A,,Clear,0,2013-03-30 08:55:00
5:15 AM,34.0,28.2,79,30.08,10.0,Calm,Calm,-,N/A,,Clear,0,2013-03-30 09:15:00
5:35 AM,32.0,26.6,80,30.08,10.0,Calm,Calm,-,N/A,,Clear,0,2013-03-30 09:35:00
5:55 AM,29.7,25.0,83,30.08,10.0,Calm,Calm,-,N/A,,Clear,0,2013-03-30 09:55:00
6:15 AM,29.3,25.7,86,30.09,10.0,Calm,Calm,-,N/A,,Clear,0,2013-03-30 10:15:00
6:35 AM,29.1,25.9,88,30.09,10.0,Calm,Calm,-,N/A,,Clear,0,2013-03-30 10:35:00
6:55 AM,29.3,26.4,89,30.10,10.0,Calm,Calm,-,N/A,,Clear,0,2013-03-30 10:55:00
7:15 AM,29.3,26.6,90,30.10,10.0,Calm,Calm,-,N/A,,Clear,0,2013-03-30 11:15:00
7:35 AM,29.3,26.6,90,30.11,10.0,Calm,Calm,-,N/A,,Clear,0,2013-03-30 11:35:00
7:55 AM,33.1,30.2,89,30.11,10.0,Calm,Calm,-,N/A,,Clear,0,2013-03-30 11:55:00
8:15 AM,34.7,29.5,81,30.11,10.0,WNW,3.5,-,N/A,,Clear,290,2013-03-30 12:15:00
8:35 AM,36.7,26.8,67,30.12,10.0,Calm,Calm,-,N/A,,Clear,0,2013-03-30 12:35:00
8:55 AM,37.2,26.4,65,30.12,10.0,WNW,3.5,-,N/A,,Clear,290,2013-03-30 12:55:00
9:15 AM,39.2,25.9,59,30.12,10.0,WNW,5.8,-,N/A,,Clear,290,2013-03-30 13:15:00
9:35 AM,39.6,23.9,54,30.12,10.0,North,4.6,-,N/A,,Clear,350,2013-03-30 13:35:00
9:55 AM,40.3,21.7,48,30.13,10.0,NNW,5.8,-,N/A,,Clear,330,2013-03-30 13:55:00
10:15 AM,40.5,19.6,43,30.13,10.0,Calm,Calm,-,N/A,,Clear,0,2013-03-30 14:15:00
10:35 AM,41.9,21.2,44,30.13,10.0,NW,4.6,-,N/A,,Clear,310,2013-03-30 14:35:00
10:55 AM,41.9,19.9,42,30.13,10.0,Calm,Calm,-,N/A,,Clear,0,2013-03-30 14:55:00
11:15 AM,43.0,19.9,40,30.12,10.0,North,6.9,-,N/A,,Clear,350,2013-03-30 15:15:00
11:35 AM,43.5,20.5,40,30.12,10.0,NE,3.5,-,N/A,,Clear,50,2013-03-30 15:35:00
11:55 AM,45.0,20.3,38,30.12,10.0,Calm,Calm,-,N/A,,Clear,0,2013-03-30 15:55:00
12:15 PM,46.8,20.3,35,30.11,10.0,North,6.9,-,N/A,,Clear,360,2013-03-30 16:15:00
12:35 PM,46.8,18.9,33,30.11,10.0,North,4.6,-,N/A,,Clear,350,2013-03-30 16:35:00
12:55 PM,49.3,19.4,31,30.10,10.0,North,9.2,-,N/A,,Clear,10,2013-03-30 16:55:00
1:15 PM,49.3,17.8,29,30.10,10.0,NNE,8.1,-,N/A,,Clear,20,2013-03-30 17:15:00
1:35 PM,49.3,17.4,28,30.09,10.0,North,6.9,-,N/A,,Clear,360,2013-03-30 17:35:00
1:55 PM,49.3,16.9,28,30.09,10.0,North,8.1,-,N/A,,Clear,350,2013-03-30 17:55:00
2:15 PM,49.3,15.8,26,30.08,10.0,North,8.1,-,N/A,,Clear,350,2013-03-30 18:15:00
2:35 PM,49.3,16.0,27,30.08,10.0,North,9.2,-,N/A,,Clear,360,2013-03-30 18:35:00
2:55 PM,49.3,16.0,27,30.08,10.0,North,3.5,-,N/A,,Clear,350,2013-03-30 18:55:00
3:15 PM,50.4,14.2,24,30.08,10.0,WNW,5.8,-,N/A,,Clear,300,2013-03-30 19:15:00
3:35 PM,50.4,12.7,22,30.08,10.0,NW,8.1,-,N/A,,Clear,320,2013-03-30 19:35:00
3:55 PM,49.3,12.4,23,30.07,10.0,North,8.1,-,N/A,,Clear,10,2013-03-30 19:55:00
4:15 PM,50.4,12.6,22,30.07,10.0,North,8.1,-,N/A,,Clear,350,2013-03-30 20:15:00
4:35 PM,49.3,12.0,22,30.07,10.0,North,8.1,-,N/A,,Clear,360,2013-03-30 20:35:00
4:55 PM,49.3,9.7,20,30.07,10.0,NNW,6.9,-,N/A,,Clear,340,2013-03-30 20:55:00
5:15 PM,49.3,8.2,19,30.07,10.0,WNW,3.5,-,N/A,,Clear,300,2013-03-30 21:15:00
5:35 PM,49.3,11.8,22,30.06,10.0,NNW,8.1,-,N/A,,Clear,340,2013-03-30 21:35:00
5:55 PM,49.3,11.7,22,30.07,10.0,NNW,4.6,-,N/A,,Clear,340,2013-03-30 21:55:00
6:15 PM,49.3,13.8,24,30.07,10.0,North,5.8,-,N/A,,Clear,350,2013-03-30 22:15:00
6:35 PM,46.8,12.6,25,30.07,10.0,North,4.6,-,N/A,,Clear,350,2013-03-30 22:35:00
6:55 PM,44.2,10.9,26,30.07,10.0,North,3.5,-,N/A,,Clear,360,2013-03-30 22:55:00
7:15 PM,43.0,10.4,27,30.08,10.0,Calm,Calm,-,N/A,,Clear,0,2013-03-30 23:15:00
7:35 PM,41.2,11.3,30,30.08,10.0,Calm,Calm,-,N/A,,Clear,0,2013-03-30 23:35:00
7:55 PM,39.2,13.1,34,30.08,10.0,Calm,Calm,-,N/A,,Clear,0,2013-03-30 23:55:00
8:15 PM,36.7,18.9,49,30.08,10.0,Calm,Calm,-,N/A,,Clear,0,2013-03-31 00:15:00
8:35 PM,34.3,18.1,52,30.08,10.0,Calm,Calm,-,N/A,,Clear,0,2013-03-31 00:35:00
8:55 PM,33.3,19.9,58,30.08,10.0,Calm,Calm,-,N/A,,Clear,0,2013-03-31 00:55:00
9:15 PM,32.0,19.2,59,30.09,10.0,Calm,Calm,-,N/A,,Clear,0,2013-03-31 01:15:00
9:35 PM,32.0,18.9,58,30.09,10.0,ESE,3.5,-,N/A,,Clear,120,2013-03-31 01:35:00
9:55 PM,30.6,19.0,62,30.09,10.0,Calm,Calm,-,N/A,,Clear,0,2013-03-31 01:55:00
10:15 PM,34.2,18.9,54,30.08,10.0,ESE,3.5,-,N/A,,Clear,120,2013-03-31 02:15:00
10:35 PM,34.2,18.3,52,30.08,10.0,ESE,3.5,-,N/A,,Clear,120,2013-03-31 02:35:00
10:55 PM,32.0,18.3,57,30.08,10.0,ESE,3.5,-,N/A,,Clear,110,2013-03-31 02:55:00
11:35 PM,29.8,18.0,61,30.07,10.0,SE,3.5,-,N/A,,Clear,130,2013-03-31 03:35:00
11:55 PM,32.0,19.0,59,30.07,10.0,SE,4.6,-,N/A,,Clear,130,2013-03-31 03:55:00